Time;durP1;ratioP1;P1;durP2;ratioP2;P2;SDS_P1;SDS_P2;PMS_P1;PMS_P2;Temp;Humidity;BMP_temperature;BMP_pressure;BME280_temperature;BME280_humidity;BME280_pressure;Samples;Min_cycle;Max_cycle;Signal;HPM_P1;HPM_P2
2021/10/25 00:00:12;;;;;;;21.15;11.20;;;;;;;-2.27;86.41;94474.67;1818478;77;21704;-78
2021/10/25 00:02:39;;;;;;;21.07;11.37;;;;;;;-2.27;86.49;94476.55;1790789;78;21607;-77
2021/10/25 00:05:06;;;;;;;14.80;7.50;;;;;;;-2.34;86.72;94476.11;1792449;78;21051;-78
2021/10/25 00:07:33;;;;;;;13.58;7.58;;;;;;;-2.38;87.01;94479.09;1790017;79;22121;-78
2021/10/25 00:10:00;;;;;;;23.85;12.82;;;;;;;-2.42;87.53;94482.87;1816797;76;21353;-78
2021/10/25 00:12:26;;;;;;;20.05;11.50;;;;;;;-2.42;87.93;94478.88;1747255;78;21783;-78
2021/10/25 00:14:55;;;;;;;19.55;11.50;;;;;;;-2.46;87.83;94489.31;1807131;77;21105;-79
2021/10/25 00:17:23;;;;;;;24.47;11.63;;;;;;;-2.50;87.96;94487.52;1768113;79;20977;-79
2021/10/25 00:19:51;;;;;;;24.17;13.13;;;;;;;-2.51;88.23;94480.07;1795424;77;21054;-78
2021/10/25 00:22:19;;;;;;;27.77;13.53;;;;;;;-2.48;88.33;94485.38;1760931;79;21085;-78
2021/10/25 00:24:46;;;;;;;26.20;14.83;;;;;;;-2.49;88.20;94482.44;1818829;77;21942;-78
2021/10/25 00:27:12;;;;;;;23.77;11.43;;;;;;;-2.50;88.21;94480.31;1794888;78;21046;-78
2021/10/25 00:29:40;;;;;;;23.57;12.10;;;;;;;-2.50;88.21;94482.19;1758177;78;21109;-77
2021/10/25 00:32:06;;;;;;;20.05;12.15;;;;;;;-2.51;88.31;94473.95;1798835;78;21065;-79
2021/10/25 00:34:33;;;;;;;23.30;12.50;;;;;;;-2.50;88.36;94474.20;1806042;78;21593;-79
2021/10/25 00:37:02;;;;;;;20.25;11.48;;;;;;;-2.50;88.18;94471.53;1813416;77;21151;-79
2021/10/25 00:39:31;;;;;;;17.55;10.23;;;;;;;-2.49;88.02;94480.56;1789895;78;21061;-79
2021/10/25 00:42:00;;;;;;;19.53;11.43;;;;;;;-2.53;87.94;94476.89;1741166;80;21543;-79
2021/10/25 00:44:29;;;;;;;22.40;10.90;;;;;;;-2.56;87.95;94480.12;1749985;79;21135;-78
2021/10/25 00:46:56;;;;;;;23.33;12.00;;;;;;;-2.59;88.23;94476.72;1784748;77;20978;-77
2021/10/25 00:49:23;;;;;;;25.33;10.70;;;;;;;-2.61;88.24;94475.41;1834029;77;21093;-78
2021/10/25 00:51:50;;;;;;;18.83;9.93;;;;;;;-2.64;88.06;94475.44;1790260;78;21124;-78
2021/10/25 00:54:17;;;;;;;22.33;10.93;;;;;;;-2.72;87.85;94472.88;1760347;78;21104;-78
2021/10/25 00:56:49;;;;;;;19.13;10.10;;;;;;;-2.79;88.11;94474.30;1787954;77;21037;-78
2021/10/25 00:59:14;;;;;;;23.75;11.90;;;;;;;-2.83;88.47;94471.41;1818731;77;21022;-78
2021/10/25 01:01:41;;;;;;;24.87;12.33;;;;;;;-2.85;88.47;94476.79;1812574;78;21208;-77
2021/10/25 01:04:09;;;;;;;20.87;11.33;;;;;;;-2.88;88.54;94472.81;1811481;78;21005;-76
2021/10/25 01:06:38;;;;;;;25.13;13.43;;;;;;;-2.90;88.43;94476.83;1803083;78;20962;-77
2021/10/25 01:09:05;;;;;;;23.13;12.77;;;;;;;-2.95;88.45;94476.36;1769377;78;21528;-77
2021/10/25 01:11:36;;;;;;;24.10;13.00;;;;;;;-2.96;88.41;94470.25;1765928;79;21075;-77
2021/10/25 01:14:03;;;;;;;26.07;13.67;;;;;;;-2.96;88.41;94469.45;1761657;81;21801;-77
2021/10/25 01:16:30;;;;;;;22.00;12.20;;;;;;;-3.00;88.32;94466.57;1809931;78;21003;-77
2021/10/25 01:18:56;;;;;;;27.23;16.50;;;;;;;-3.08;88.47;94469.08;1805979;78;21036;-77
2021/10/25 01:21:23;;;;;;;28.73;14.27;;;;;;;-3.15;88.93;94460.64;1765884;79;21113;-78
2021/10/25 01:23:50;;;;;;;22.03;10.93;;;;;;;-3.17;89.18;94463.02;1778037;78;21092;-77
2021/10/25 01:26:18;;;;;;;22.93;11.77;;;;;;;-3.17;89.31;94466.22;1749794;80;21146;-76
2021/10/25 01:28:45;;;;;;;20.90;10.97;;;;;;;-3.26;89.37;94462.07;1751190;79;21049;-76
2021/10/25 01:31:13;;;;;;;17.33;10.67;;;;;;;-3.30;89.72;94469.58;1776899;79;21012;-77
2021/10/25 01:33:40;;;;;;;22.67;12.60;;;;;;;-3.34;89.89;94460.03;1829788;77;21065;-79
2021/10/25 01:36:06;;;;;;;25.10;11.10;;;;;;;-3.33;90.33;94456.30;1809472;77;21138;-79
2021/10/25 01:38:33;;;;;;;22.83;12.90;;;;;;;-3.25;90.49;94462.86;1833167;77;21569;-79
2021/10/25 01:41:00;;;;;;;17.90;9.57;;;;;;;-3.20;90.59;94458.80;1831105;77;21402;-78
2021/10/25 01:43:27;;;;;;;23.43;13.70;;;;;;;-3.13;90.92;94457.14;1800511;78;21006;-78
2021/10/25 01:45:53;;;;;;;28.07;15.33;;;;;;;-3.10;90.81;94457.37;1774555;79;21524;-78
2021/10/25 01:48:20;;;;;;;22.57;13.03;;;;;;;-3.12;90.07;94460.87;1777256;79;21069;-79
2021/10/25 01:50:46;;;;;;;21.70;12.63;;;;;;;-3.17;89.75;94447.60;1787737;79;21083;-76
2021/10/25 01:53:13;;;;;;;19.73;10.70;;;;;;;-3.20;90.10;94450.83;1800723;78;21017;-76
2021/10/25 01:55:43;;;;;;;23.50;12.90;;;;;;;-3.22;89.93;94452.98;1765989;79;21690;-76
2021/10/25 01:58:10;;;;;;;16.73;10.97;;;;;;;-3.29;89.54;94451.99;1804883;78;21040;-76
2021/10/25 02:00:36;;;;;;;19.33;11.77;;;;;;;-3.33;89.63;94455.50;1782421;78;21156;-79
2021/10/25 02:03:03;;;;;;;16.83;10.27;;;;;;;-3.34;89.77;94449.94;1804844;78;21101;-79
2021/10/25 02:05:40;;;;;;;18.80;11.17;;;;;;;-3.34;90.07;94454.72;1801522;78;21057;-78
2021/10/25 02:08:09;;;;;;;15.67;8.80;;;;;;;-3.32;90.31;94455.75;1796233;78;20995;-79
2021/10/25 02:10:37;;;;;;;18.07;10.27;;;;;;;-3.33;90.07;94461.61;1793179;78;21014;-78
2021/10/25 02:13:05;;;;;;;13.93;9.13;;;;;;;-3.32;90.18;94459.20;1811694;78;21159;-78
2021/10/25 02:15:31;;;;;;;23.60;13.07;;;;;;;-3.30;90.09;94468.25;1801179;78;21130;-77
2021/10/25 02:17:59;;;;;;;19.77;11.97;;;;;;;-3.27;90.23;94465.00;1774020;78;21312;-77
2021/10/25 02:20:26;;;;;;;20.50;12.30;;;;;;;-3.26;90.17;94465.27;1809745;76;21401;-78
2021/10/25 02:22:52;;;;;;;19.53;12.17;;;;;;;-3.23;89.97;94474.03;1770432;77;21061;-77
2021/10/25 02:25:20;;;;;;;21.70;12.13;;;;;;;-3.22;89.86;94468.41;1811508;77;21291;-77
2021/10/25 02:27:48;;;;;;;19.23;9.97;;;;;;;-3.23;89.65;94467.37;1847917;76;21508;-77
2021/10/25 02:30:16;;;;;;;22.83;11.07;;;;;;;-3.26;89.57;94463.94;1825643;77;21079;-78
2021/10/25 02:32:45;;;;;;;23.07;13.67;;;;;;;-3.27;89.57;94463.16;1840252;77;21668;-76
2021/10/25 02:35:11;;;;;;;24.13;12.03;;;;;;;-3.30;89.39;94457.61;1841061;77;21092;-77
2021/10/25 02:37:39;;;;;;;27.10;13.63;;;;;;;-3.34;89.29;94463.23;1789864;78;21085;-78
2021/10/25 02:40:07;;;;;;;17.70;10.80;;;;;;;-3.36;89.23;94462.72;1783492;78;21571;-76
2021/10/25 02:42:33;;;;;;;18.87;10.90;;;;;;;-3.40;89.21;94453.17;1809509;78;21458;-76
2021/10/25 02:45:00;;;;;;;18.43;10.13;;;;;;;-3.42;89.17;94451.35;1807785;77;21030;-77
2021/10/25 02:47:27;;;;;;;17.70;8.57;;;;;;;-3.43;89.29;94449.20;1766986;80;20999;-76
2021/10/25 02:49:54;;;;;;;17.40;9.40;;;;;;;-3.39;89.36;94448.10;1761861;80;21085;-78
2021/10/25 02:52:22;;;;;;;19.00;10.43;;;;;;;-3.41;89.13;94446.28;1755868;79;21147;-77
2021/10/25 02:54:50;;;;;;;26.10;13.37;;;;;;;-3.46;89.30;94449.79;1796732;79;21076;-77
2021/10/25 02:57:17;;;;;;;28.57;13.93;;;;;;;-3.52;89.20;94450.91;1790491;78;20998;-77
2021/10/25 02:59:44;;;;;;;28.67;15.20;;;;;;;-3.55;89.47;94444.81;1758519;79;21076;-78
2021/10/25 03:02:11;;;;;;;24.47;12.47;;;;;;;-3.51;89.69;94435.73;1805237;77;21037;-77
2021/10/25 03:04:38;;;;;;;21.40;13.47;;;;;;;-3.45;89.65;94435.41;1820427;77;21137;-77
2021/10/25 03:07:05;;;;;;;22.33;11.63;;;;;;;-3.42;89.44;94430.08;1795230;77;21026;-77
2021/10/25 03:09:33;;;;;;;8.03;5.03;;;;;;;-3.43;89.21;94431.91;1767145;79;21052;-77
2021/10/25 03:12:01;;;;;;;12.67;7.90;;;;;;;-3.41;89.76;94438.30;1767068;78;21057;-78
2021/10/25 03:14:29;;;;;;;18.20;9.00;;;;;;;-3.41;89.71;94432.98;1781559;78;21115;-77
2021/10/25 03:16:57;;;;;;;11.87;7.00;;;;;;;-3.44;89.53;94436.20;1785178;78;21580;-77
2021/10/25 03:19:25;;;;;;;13.23;7.83;;;;;;;-3.48;89.22;94433.85;1774535;78;21129;-78
2021/10/25 03:21:52;;;;;;;11.83;7.20;;;;;;;-3.52;89.13;94438.94;1772216;78;21033;-78
2021/10/25 03:24:19;;;;;;;15.73;7.20;;;;;;;-3.55;89.26;94437.37;1794714;77;21017;-76
2021/10/25 03:26:46;;;;;;;12.87;8.00;;;;;;;-3.57;89.39;94436.85;1815491;77;21053;-76
2021/10/25 03:29:14;;;;;;;15.70;8.03;;;;;;;-3.59;89.51;94437.14;1812760;78;21812;-76
2021/10/25 03:31:41;;;;;;;15.27;8.93;;;;;;;-3.64;89.54;94433.22;1736041;81;21564;-78
2021/10/25 03:34:07;;;;;;;15.30;8.90;;;;;;;-3.65;89.78;94436.93;1757734;80;21038;-76
2021/10/25 03:36:38;;;;;;;14.43;9.13;;;;;;;-3.66;89.85;94441.45;1792225;78;20947;-75
2021/10/25 03:39:06;;;;;;;19.17;10.80;;;;;;;-3.66;89.62;94431.36;1811403;76;21038;-78
2021/10/25 03:41:38;;;;;;;22.97;12.40;;;;;;;-3.70;89.46;94429.02;1836271;77;21076;-77
2021/10/25 03:49:21;;;;;;;27.50;12.10;;;;;;;-3.90;89.16;94432.66;1746143;79;21362;-77
2021/10/25 03:51:43;;;;;;;21.13;12.57;;;;;;;-3.94;89.43;94428.98;1743048;80;21092;-77
2021/10/25 04:26:52;;;;;;;33.92;17.55;;;;;;;-4.11;90.38;94430.70;1833862;77;21031;-75
2021/10/25 04:29:16;;;;;;;28.73;17.63;;;;;;;-4.12;90.24;94422.48;1835915;77;21578;-75
2021/10/25 04:31:41;;;;;;;33.37;19.13;;;;;;;-4.12;90.14;94429.66;1797908;77;21054;-78
2021/10/25 04:34:09;;;;;;;28.57;18.50;;;;;;;-4.18;89.86;94427.03;1807093;78;22084;-78
2021/10/25 04:36:44;;;;;;;32.97;19.40;;;;;;;-4.22;89.90;94431.85;1769119;78;21072;-78
2021/10/25 04:39:24;;;;;;;29.37;17.23;;;;;;;-4.25;89.74;94434.55;1777098;78;21063;-75
2021/10/25 04:41:52;;;;;;;29.60;16.43;;;;;;;-4.30;89.70;94429.25;1792003;77;21100;-76
2021/10/25 04:44:19;;;;;;;30.43;17.83;;;;;;;-4.29;89.80;94424.73;1764105;79;21794;-78
2021/10/25 04:46:46;;;;;;;26.43;16.03;;;;;;;-4.30;89.85;94427.14;1792266;78;21129;-75
2021/10/25 04:49:12;;;;;;;24.67;14.53;;;;;;;-4.30;89.89;94429.25;1795968;77;21550;-75
2021/10/25 04:51:44;;;;;;;23.13;14.33;;;;;;;-4.32;90.02;94427.42;1764298;79;21074;-76
2021/10/25 04:54:19;;;;;;;26.55;15.10;;;;;;;-4.32;90.19;94424.77;1776981;79;21626;-76
2021/10/25 04:56:47;;;;;;;24.87;15.17;;;;;;;-4.34;90.15;94430.09;1811746;77;21045;-76
2021/10/25 04:59:16;;;;;;;36.77;16.17;;;;;;;-4.35;90.16;94430.63;1808370;78;21738;-76
2021/10/25 05:01:43;;;;;;;23.53;13.80;;;;;;;-4.34;90.21;94430.88;1799744;77;21128;-75
2021/10/25 05:04:10;;;;;;;28.93;15.40;;;;;;;-4.30;90.26;94431.13;1763121;76;21049;-75
2021/10/25 05:06:38;;;;;;;30.67;18.27;;;;;;;-4.30;90.12;94427.92;1727088;80;21118;-79
2021/10/25 05:09:04;;;;;;;29.70;17.17;;;;;;;-4.31;89.87;94435.64;1743370;78;21042;-76
2021/10/25 05:11:31;;;;;;;25.40;12.90;;;;;;;-4.34;89.76;94432.20;1802895;77;21161;-77
2021/10/25 05:13:58;;;;;;;29.60;14.40;;;;;;;-4.37;89.86;94435.41;1741331;78;21502;-75
2021/10/25 05:16:24;;;;;;;20.53;12.47;;;;;;;-4.40;89.92;94439.94;1806593;77;21057;-76
2021/10/25 05:18:58;;;;;;;22.57;14.40;;;;;;;-4.41;90.09;94439.69;1792219;77;21076;-76
2021/10/25 05:21:26;;;;;;;28.57;16.90;;;;;;;-4.39;90.20;94434.91;1806612;77;21710;-75
2021/10/25 05:26:20;;;;;;;25.00;13.43;;;;;;;-4.37;90.06;94439.39;1806267;77;21002;-76
2021/10/25 05:28:47;;;;;;;21.10;11.43;;;;;;;-4.33;90.02;94441.75;1809915;77;22395;-77
2021/10/25 05:31:14;;;;;;;23.43;13.13;;;;;;;-4.33;90.04;94440.42;1797822;77;21098;-76
2021/10/25 05:33:43;;;;;;;22.03;12.83;;;;;;;-4.34;90.06;94441.50;1793512;78;21109;-77
2021/10/25 05:36:09;;;;;;;27.20;15.40;;;;;;;-4.35;90.13;94441.25;1790032;79;21090;-77
2021/10/25 05:38:36;;;;;;;30.57;15.07;;;;;;;-4.34;90.21;94442.05;1780470;77;21094;-77
2021/10/25 05:41:06;;;;;;;20.60;13.07;;;;;;;-4.27;90.25;94447.84;1803490;78;21018;-78
2021/10/25 05:43:33;;;;;;;22.33;13.27;;;;;;;-4.12;90.41;94446.39;1794811;78;22191;-78
2021/10/25 05:46:00;;;;;;;21.63;11.07;;;;;;;-3.89;90.43;94443.54;1782883;78;21105;-78
2021/10/25 05:48:27;;;;;;;22.33;11.80;;;;;;;-3.73;90.39;94442.86;1780698;78;21945;-78
2021/10/25 05:50:54;;;;;;;18.60;10.43;;;;;;;-3.58;90.20;94445.91;1768526;78;21100;-80
2021/10/25 05:53:20;;;;;;;20.00;11.90;;;;;;;-3.42;90.07;94442.05;1783184;78;21125;-79
2021/10/25 05:55:47;;;;;;;21.77;12.07;;;;;;;-3.24;89.66;94443.95;1786837;78;21095;-80
2021/10/25 05:58:21;;;;;;;23.87;14.17;;;;;;;-3.08;89.25;94443.80;1779317;79;21078;-79
2021/10/25 06:00:58;;;;;;;23.57;13.80;;;;;;;-2.95;88.53;94445.75;1753213;77;21155;-79
2021/10/25 06:03:36;;;;;;;26.23;15.03;;;;;;;-2.92;87.36;94446.52;1797608;77;22264;-79
2021/10/25 06:06:03;;;;;;;35.07;18.53;;;;;;;-2.85;87.67;94448.84;1801935;77;21109;-80
2021/10/25 06:08:31;;;;;;;33.23;16.43;;;;;;;-2.73;87.26;94446.55;1788883;78;21128;-80
2021/10/25 06:10:58;;;;;;;28.33;14.90;;;;;;;-2.59;86.93;94449.30;1742786;79;21349;-79
2021/10/25 06:13:32;;;;;;;50.37;23.83;;;;;;;-2.43;87.17;94448.55;1780065;78;21201;-80
2021/10/25 06:16:11;;;;;;;25.92;14.68;;;;;;;-2.27;86.64;94448.02;1792240;78;21042;-78
2021/10/25 06:18:32;;;;;;;18.57;11.68;;;;;;;-2.14;86.24;94451.84;1771092;78;21188;-78
2021/10/25 06:20:59;;;;;;;31.90;18.48;;;;;;;-2.04;85.77;94454.34;1784500;79;21652;-80
2021/10/25 06:23:26;;;;;;;14.23;9.33;;;;;;;-1.91;85.22;94456.82;1789067;79;21121;-80
2021/10/25 06:25:52;;;;;;;17.07;9.95;;;;;;;-1.79;84.12;94452.36;1789274;79;21868;-81
2021/10/25 06:28:26;;;;;;;15.48;9.70;;;;;;;-1.67;83.77;94458.56;1782240;79;21042;-81
2021/10/25 06:30:59;;;;;;;12.15;7.75;;;;;;;-1.44;83.53;94456.83;1779336;79;21095;-82
2021/10/25 06:33:24;;;;;;;14.87;8.70;;;;;;;-1.11;82.59;94457.02;1774796;77;21019;-82
2021/10/25 06:36:03;;;;;;;14.10;9.28;;;;;;;-0.63;81.30;94455.27;1732901;80;21066;-81
2021/10/25 06:41:18;;;;;;;18.98;11.53;;;;;;;0.19;76.87;94454.80;1780363;77;21160;-80
2021/10/25 06:43:45;;;;;;;17.57;9.93;;;;;;;0.42;75.47;94459.59;1778643;77;22144;-80
2021/10/25 06:46:14;;;;;;;17.20;10.55;;;;;;;0.66;75.02;94452.55;1767379;78;21164;-80
2021/10/25 06:48:40;;;;;;;16.85;10.55;;;;;;;1.03;73.81;94447.29;1823017;76;21604;-82
2021/10/25 06:51:07;;;;;;;16.97;10.43;;;;;;;1.30;72.86;94452.19;1756462;78;22282;-81
2021/10/25 06:53:35;;;;;;;22.20;9.18;;;;;;;1.54;71.96;94448.52;1777143;78;20963;-81
2021/10/25 06:56:04;;;;;;;15.38;8.68;;;;;;;1.74;70.96;94446.36;1834997;76;20981;-80
2021/10/25 06:58:31;;;;;;;15.00;7.80;;;;;;;1.74;70.10;94448.49;1814539;76;21010;-83
2021/10/25 07:00:59;;;;;;;12.20;8.15;;;;;;;1.69;70.63;94450.78;1798060;77;21595;-82
2021/10/25 07:03:28;;;;;;;13.35;7.60;;;;;;;1.65;71.70;94452.48;1802369;77;21181;-85
2021/10/25 07:05:55;;;;;;;13.30;8.10;;;;;;;1.61;71.30;94446.72;1751521;78;21039;-83
2021/10/25 07:08:22;;;;;;;11.78;7.95;;;;;;;1.55;71.53;94444.76;1776696;77;21085;-83
2021/10/25 07:10:49;;;;;;;14.47;8.05;;;;;;;1.59;71.92;94447.61;1761177;80;21141;-82
2021/10/25 07:13:17;;;;;;;12.37;7.95;;;;;;;1.76;72.36;94444.93;1766563;77;21074;-84
2021/10/25 07:15:52;;;;;;;14.38;8.35;;;;;;;1.93;71.56;94444.95;1752977;79;21720;-82
2021/10/25 07:23:29;;;;;;;15.25;7.85;;;;;;;2.43;69.95;94435.59;1749251;77;21490;-83
2021/10/25 08:07:24;;;;;;;10.68;5.55;;;;;;;4.86;62.33;94371.55;1787643;77;21069;-84
2021/10/25 08:12:19;;;;;;;6.85;4.62;;;;;;;5.44;59.93;94370.08;1756643;79;21035;-84
2021/10/25 08:14:52;;;;;;;8.13;4.95;;;;;;;5.59;58.54;94367.25;1789063;77;21512;-84
2021/10/25 08:17:22;;;;;;;5.22;3.87;;;;;;;5.74;58.34;94365.77;1812576;75;21887;-84
2021/10/25 08:19:48;;;;;;;8.45;5.22;;;;;;;6.02;57.19;94367.97;1801197;77;22162;-83
2021/10/25 08:22:16;;;;;;;7.47;4.50;;;;;;;6.40;56.36;94373.45;1835286;75;21204;-83
2021/10/25 08:24:49;;;;;;;8.40;3.75;;;;;;;6.73;55.84;94365.59;1816263;76;21039;-84
2021/10/25 08:27:21;;;;;;;7.78;4.40;;;;;;;7.09;55.25;94365.15;1815100;77;21339;-83
2021/10/25 08:29:48;;;;;;;8.90;5.65;;;;;;;7.40;53.83;94362.41;1833169;76;21027;-84
2021/10/25 08:35:25;;;;;;;7.47;5.28;;;;;;;7.73;53.14;94367.98;1823555;77;21105;-82
2021/10/25 08:40:42;;;;;;;6.23;4.60;;;;;;;8.22;50.26;94357.97;1804589;77;21086;-83
2021/10/25 08:43:10;;;;;;;7.92;5.03;;;;;;;8.28;50.25;94357.91;1809008;77;21717;-83
2021/10/25 08:45:38;;;;;;;11.43;5.08;;;;;;;8.23;50.34;94358.17;1835930;76;21159;-84
2021/10/25 08:48:05;;;;;;;7.25;5.25;;;;;;;8.30;50.58;94361.60;1835588;76;21122;-82
2021/10/25 08:50:34;;;;;;;8.90;6.15;;;;;;;8.39;50.11;94358.93;1837246;77;21671;-82
2021/10/25 08:53:05;;;;;;;10.75;6.12;;;;;;;8.42;50.67;94350.63;1829283;76;21061;-85
2021/10/25 08:55:36;;;;;;;8.38;5.85;;;;;;;8.51;50.29;94353.92;1824639;77;21049;-84
2021/10/25 08:58:05;;;;;;;9.60;6.45;;;;;;;8.73;50.17;94353.74;1801644;78;21056;-84
2021/10/25 09:00:45;;;;;;;9.53;6.00;;;;;;;8.92;49.54;94355.05;1760047;78;21506;-83
2021/10/25 09:03:13;;;;;;;8.40;5.58;;;;;;;9.11;49.08;94352.06;1740896;79;21038;-84
2021/10/25 09:05:56;;;;;;;7.97;5.53;;;;;;;9.35;48.49;94352.24;1754349;78;21117;-84
2021/10/25 09:10:07;;;;;;;8.33;5.65;;;;;;;9.76;47.45;94342.95;1783322;78;28833;-82
2021/10/25 09:12:34;;;;;;;6.25;4.90;;;;;;;9.87;46.56;94353.39;1784580;78;21198;-84
2021/10/25 09:15:01;;;;;;;8.33;6.17;;;;;;;9.84;46.13;94348.11;1812295;77;21158;-81
2021/10/25 09:17:41;;;;;;;5.22;4.12;;;;;;;9.75;46.42;94346.25;1779152;77;21540;-83
2021/10/25 09:20:18;;;;;;;10.00;6.20;;;;;;;9.67;44.86;94349.44;1718992;81;21243;-82
2021/10/25 15:40:16;;;;;;;6.35;3.30;;;;;;;4.80;55.56;94096.68;1706622;80;67061;-94
2021/10/25 15:42:42;;;;;;;4.83;2.67;;;;;;;4.69;56.12;94100.20;1690049;82;21051;-93
2021/10/25 15:45:09;;;;;;;6.12;3.10;;;;;;;4.61;56.63;94089.78;1728179;80;21508;-94
2021/10/25 15:47:35;;;;;;;4.58;3.00;;;;;;;4.51;57.11;94084.86;1727943;80;21080;-93
2021/10/25 15:50:04;;;;;;;6.67;3.27;;;;;;;4.42;57.68;94089.59;1741473;80;21035;-93
2021/10/25 15:52:31;;;;;;;7.05;3.00;;;;;;;4.30;58.24;94088.49;1771593;78;21253;-94
2021/10/25 15:54:57;;;;;;;4.33;3.22;;;;;;;4.18;58.75;94095.81;1729331;78;21580;-94
2021/10/25 15:57:27;;;;;;;3.75;2.70;;;;;;;4.04;59.09;94090.76;1707540;80;21551;-94
2021/10/25 15:59:54;;;;;;;6.08;3.47;;;;;;;3.96;59.39;94091.66;1758593;79;21068;-93
2021/10/25 16:02:22;;;;;;;6.17;3.25;;;;;;;3.92;59.89;94094.80;1779639;78;21995;-94
2021/10/25 16:04:49;;;;;;;5.90;3.22;;;;;;;3.84;60.45;94097.27;1758515;80;21082;-95
2021/10/25 16:07:15;;;;;;;9.88;3.75;;;;;;;3.74;60.74;94090.97;1735442;80;21097;-93
2021/10/25 16:09:42;;;;;;;4.33;3.00;;;;;;;3.63;61.57;94097.91;1740000;80;21072;-93
2021/10/25 16:12:16;;;;;;;8.70;3.33;;;;;;;3.63;61.57;94097.91;1727582;80;21101;-93
2021/10/25 16:14:39;;;;;;;5.17;3.83;;;;;;;3.55;62.01;94096.11;1739185;80;21106;-93
2021/10/25 16:17:09;;;;;;;5.22;3.42;;;;;;;3.50;62.33;94097.11;1734765;80;21599;-93
2021/10/25 16:19:41;;;;;;;4.80;3.00;;;;;;;3.42;62.59;94095.28;1718613;82;21696;-93
2021/10/25 16:22:08;;;;;;;8.98;3.58;;;;;;;3.34;62.93;94094.82;1724845;80;21516;-94
2021/10/25 16:24:35;;;;;;;8.48;5.42;;;;;;;3.25;63.10;94095.48;1779462;79;21047;-91
2021/10/25 16:27:02;;;;;;;5.08;3.52;;;;;;;3.15;64.02;94093.42;1799215;78;21053;-92
2021/10/25 16:29:29;;;;;;;6.87;3.58;;;;;;;3.15;64.02;94098.80;1799486;78;21141;-92
2021/10/25 16:31:56;;;;;;;5.22;3.40;;;;;;;3.11;64.10;94091.73;1782352;78;21060;-91
2021/10/25 16:34:22;;;;;;;5.08;3.55;;;;;;;3.08;64.59;94104.48;1722983;81;22052;-93
2021/10/25 16:36:49;;;;;;;6.92;3.98;;;;;;;3.03;64.78;94111.41;1768276;78;21077;-94
2021/10/25 16:39:16;;;;;;;6.72;3.65;;;;;;;3.01;65.02;94109.61;1750899;78;21728;-94
2021/10/25 16:41:42;;;;;;;6.08;3.67;;;;;;;2.95;65.24;94114.41;1774930;78;21038;-94
2021/10/25 16:44:09;;;;;;;3.85;3.12;;;;;;;2.88;65.59;94110.91;1763629;79;21620;-94
2021/10/25 16:46:35;;;;;;;6.37;4.28;;;;;;;2.81;65.82;94114.67;1770566;79;21264;-93
2021/10/25 16:49:09;;;;;;;7.20;3.77;;;;;;;2.73;66.13;94117.44;1747014;80;21096;-94
2021/10/25 16:51:35;;;;;;;6.05;3.67;;;;;;;2.73;66.13;94117.44;1723889;80;21072;-94
2021/10/25 17:09:13;;;;;;;9.03;4.37;;;;;;;2.47;67.19;94118.41;1756513;77;21091;-93
2021/10/25 17:11:56;;;;;;;7.42;4.33;;;;;;;2.36;67.56;94119.91;1746434;80;21325;-93
2021/10/25 17:14:24;;;;;;;8.53;4.75;;;;;;;2.33;67.72;94120.02;1746913;80;22325;-92
2021/10/25 17:16:51;;;;;;;6.17;3.90;;;;;;;2.31;67.87;94129.50;1739738;81;21070;-93
2021/10/25 17:19:18;;;;;;;6.87;4.08;;;;;;;2.28;68.08;94132.27;1745166;80;21069;-93
2021/10/25 17:21:46;;;;;;;6.15;4.17;;;;;;;2.22;68.44;94129.56;1744193;80;21104;-94
2021/10/25 17:24:14;;;;;;;7.90;4.30;;;;;;;2.14;68.75;94130.38;1711065;81;21022;-94
2021/10/25 17:26:49;;;;;;;8.93;4.97;;;;;;;2.08;69.07;94124.98;1747105;80;21745;-93
2021/10/25 17:29:15;;;;;;;8.50;3.85;;;;;;;2.07;69.18;94134.11;1713526;81;21176;-94
2021/10/25 17:31:43;;;;;;;10.65;4.37;;;;;;;2.07;69.29;94132.24;1789562;78;21108;-93
2021/10/25 17:34:11;;;;;;;46.50;20.95;;;;;;;2.07;69.50;94132.77;1774796;79;21003;-93
2021/10/25 17:36:39;;;;;;;54.67;27.42;;;;;;;2.03;69.01;94128.64;1706297;81;21113;-94
2021/10/25 17:39:07;;;;;;;20.70;11.75;;;;;;;2.01;68.34;94121.45;1730247;79;21046;-92
2021/10/25 17:41:35;;;;;;;19.48;10.05;;;;;;;1.95;68.64;94124.08;1751635;80;21110;-94
2021/10/25 17:44:02;;;;;;;11.63;6.03;;;;;;;1.92;68.83;94116.14;1746677;80;21067;-92
2021/10/25 17:46:30;;;;;;;16.30;9.33;;;;;;;1.92;69.16;94114.02;1763154;78;21105;-93
2021/10/25 17:48:56;;;;;;;10.58;5.83;;;;;;;1.90;69.36;94107.63;1777644;79;21106;-93
2021/10/25 17:51:28;;;;;;;10.18;6.47;;;;;;;1.89;69.50;94108.73;1780647;78;21697;-93
2021/10/25 17:53:51;;;;;;;23.35;14.98;;;;;;;1.87;69.75;94107.48;1791316;77;21196;-94
2021/10/25 17:56:18;;;;;;;20.72;13.30;;;;;;;1.83;69.97;94119.97;1765702;79;21097;-93
2021/10/25 17:58:44;;;;;;;14.90;10.08;;;;;;;1.77;70.27;94113.20;1768887;79;21592;-93
2021/10/25 18:01:10;;;;;;;10.05;5.72;;;;;;;1.69;70.37;94113.47;1765188;79;21092;-93
2021/10/25 18:03:41;;;;;;;15.25;7.25;;;;;;;1.59;70.76;94105.24;1742542;80;21077;-92
2021/10/25 18:06:05;;;;;;;30.88;17.77;;;;;;;1.54;71.03;94107.30;1730159;80;21090;-93
2021/10/25 18:08:33;;;;;;;39.38;21.90;;;;;;;1.47;71.09;94106.48;1753748;79;21002;-92
2021/10/25 18:11:00;;;;;;;49.85;26.15;;;;;;;1.40;70.34;94104.84;1681528;81;21569;-94
2021/10/25 18:13:27;;;;;;;62.25;30.55;;;;;;;1.32;70.08;94109.13;1738055;78;21759;-92
2021/10/25 18:15:57;;;;;;;71.20;36.73;;;;;;;1.25;70.00;94103.46;1754590;79;21070;-94
2021/10/25 18:18:23;;;;;;;47.27;24.65;;;;;;;1.19;69.92;94100.16;1729614;79;21074;-93
2021/10/25 18:20:53;;;;;;;33.38;17.10;;;;;;;1.17;70.18;94097.58;1772215;79;21086;-94
2021/10/25 18:23:21;;;;;;;22.42;11.30;;;;;;;1.12;70.50;94097.17;1744324;79;20987;-92
2021/10/25 18:25:52;;;;;;;23.60;12.98;;;;;;;1.12;71.06;94096.39;1731531;80;21263;-92
2021/10/25 18:28:20;;;;;;;31.25;17.95;;;;;;;1.10;71.38;94096.72;1746012;80;21122;-92
2021/10/25 18:30:46;;;;;;;28.70;16.55;;;;;;;1.08;71.46;94095.45;1722270;80;21510;-93
2021/10/25 18:33:13;;;;;;;16.32;9.68;;;;;;;1.04;71.38;94089.95;1763064;79;21093;-92
2021/10/25 18:35:43;;;;;;;11.50;5.80;;;;;;;1.01;71.41;94087.90;1746481;80;21073;-93
2021/10/25 18:38:09;;;;;;;8.70;4.97;;;;;;;0.97;72.11;94091.77;1801213;78;21258;-93
2021/10/25 18:40:37;;;;;;;7.70;4.65;;;;;;;0.93;72.47;94092.72;1765557;79;21083;-93
2021/10/25 18:43:04;;;;;;;6.55;4.25;;;;;;;0.88;72.91;94092.90;1778855;78;21054;-91
2021/10/25 18:45:33;;;;;;;7.42;4.25;;;;;;;0.83;73.19;94094.38;1738746;81;21070;-91
2021/10/25 18:48:00;;;;;;;5.80;4.00;;;;;;;0.75;73.50;94097.86;1724933;80;21110;-92
2021/10/25 18:50:32;;;;;;;10.90;5.33;;;;;;;0.65;73.73;94097.09;1744893;80;21138;-92
2021/10/25 18:53:03;;;;;;;21.68;11.40;;;;;;;0.63;73.76;94100.62;1775952;78;21049;-93
2021/10/25 18:55:30;;;;;;;43.23;21.55;;;;;;;0.59;73.29;94093.55;1751230;78;21078;-91
2021/10/25 18:57:57;;;;;;;49.27;25.70;;;;;;;0.54;72.64;94101.19;1747262;79;21682;-92
2021/10/25 19:00:24;;;;;;;53.80;25.20;;;;;;;0.51;72.32;94098.34;1727882;82;21954;-92
2021/10/25 19:02:51;;;;;;;49.95;24.07;;;;;;;0.46;72.17;94093.95;1758536;80;21787;-92
2021/10/25 19:05:21;;;;;;;41.40;20.92;;;;;;;0.40;72.14;94093.86;1755943;80;21028;-91
2021/10/25 19:07:48;;;;;;;32.08;16.35;;;;;;;0.34;72.16;94098.59;1769832;79;21733;-90
2021/10/25 19:10:15;;;;;;;40.60;20.00;;;;;;;0.26;72.37;94099.34;1778801;78;21195;-90
2021/10/25 19:12:42;;;;;;;73.20;42.15;;;;;;;0.23;72.73;94102.11;1783889;78;21069;-92
2021/10/25 19:15:11;;;;;;;50.20;26.42;;;;;;;0.18;72.82;94107.59;1749488;80;21079;-92
2021/10/25 19:17:39;;;;;;;35.48;19.73;;;;;;;0.14;73.25;94112.55;1747150;80;21094;-91
2021/10/25 19:20:12;;;;;;;34.05;18.40;;;;;;;0.09;73.81;94106.02;1739654;81;21967;-92
2021/10/25 19:22:39;;;;;;;29.25;16.00;;;;;;;0.06;74.00;94108.77;1776958;77;21792;-92
2021/10/25 19:25:07;;;;;;;21.62;13.03;;;;;;;0.03;74.06;94102.70;1757254;79;21424;-92
2021/10/25 19:27:35;;;;;;;15.93;9.48;;;;;;;-0.05;74.35;94102.13;1773394;78;21115;-91
2021/10/25 19:30:03;;;;;;;15.75;10.23;;;;;;;-0.07;74.82;94101.67;1803065;78;21104;-92
2021/10/25 19:32:31;;;;;;;15.03;7.28;;;;;;;-0.10;75.33;94102.29;1757427;80;21077;-92
2021/10/25 19:34:57;;;;;;;12.55;7.78;;;;;;;-0.15;75.71;94099.22;1794675;78;21096;-92
2021/10/25 19:37:25;;;;;;;14.47;8.33;;;;;;;-0.18;75.93;94102.50;1772183;78;21464;-92
2021/10/25 19:39:53;;;;;;;7.12;5.03;;;;;;;-0.26;76.24;94094.70;1743017;80;21812;-92
2021/10/25 19:42:21;;;;;;;8.40;4.30;;;;;;;-0.27;76.54;94103.80;1748308;80;21093;-92